CDT,Max TemperatureF,Mean TemperatureF,Min TemperatureF,Max Dew PointF,MeanDew PointF,Min DewpointF,Max Humidity, Mean Humidity, Min Humidity, Max Sea Level PressureIn, Mean Sea Level PressureIn, Min Sea Level PressureIn, Max VisibilityMiles, Mean VisibilityMiles, Min VisibilityMiles, Max Wind SpeedMPH, Mean Wind SpeedMPH, Max Gust SpeedMPH,PrecipitationIn, CloudCover, Events, WindDirDegrees
2013-10-1,74,61,49,49,39,28,76,46,18,30.03,29.95,29.69,10,10,3,20,9,26,0.00,0,,9
2013-10-2,82,67,52,61,49,38,74,54,33,29.99,29.89,29.80,10,10,3,18,7,22,0.00,1,Thunderstorm,140
2013-10-3,59,54,48,55,50,46,93,88,65,29.88,29.84,29.81,10,6,0,18,8,24,0.14,6,Fog-Rain-Thunderstorm,15
2013-10-4,67,52,39,63,51,31,93,86,68,29.83,29.74,29.58,10,5,0,29,16,38,0.14,7,Fog-Rain-Thunderstorm,69
2013-10-5,42,39,37,38,34,31,90,81,72,29.86,29.77,29.74,10,8,2,30,21,40,0.17,8,Rain,270
2013-10-6,61,51,41,40,35,23,90,65,24,30.07,29.97,29.87,10,10,4,28,19,36,0.12,4,Rain,310
2013-10-7,76,57,38,44,38,34,84,56,22,30.07,29.99,29.88,10,10,10,9,5,,0.00,0,,211
2013-10-8,78,66,55,41,39,35,54,40,20,29.88,29.81,29.75,10,10,10,25,14,33,0.00,0,,184
2013-10-9,76,62,49,50,46,42,82,56,33,29.93,29.88,29.83,10,10,10,17,9,21,0.01,0,,152
2013-10-10,77,66,55,55,51,48,82,59,39,29.89,29.79,29.62,10,10,7,29,12,37,0.00,0,,162
2013-10-11,68,58,49,56,45,35,75,59,42,29.92,29.63,29.47,10,10,10,28,21,43,0.00,3,Rain,216
2013-10-12,61,50,39,36,29,21,76,46,22,30.28,30.12,29.93,10,10,10,22,12,28,0.00,0,,296
2013-10-13,68,52,35,42,31,26,87,47,21,30.36,30.28,30.19,10,10,10,23,7,29,0.01,4,Rain-Thunderstorm,150
2013-10-14,52,49,46,49,44,41,92,84,64,30.22,29.89,29.66,10,8,2,23,17,37,1.30,8,Rain-Thunderstorm,139
2013-10-15,45,42,38,41,35,32,86,79,75,30.13,29.99,29.77,10,10,5,30,23,40,0.01,8,,303
2013-10-16,57,46,36,36,32,24,86,62,29,30.11,30.03,29.92,10,10,7,13,7,17,0.00,3,,285
2013-10-17,46,40,35,38,33,29,83,73,61,30.09,29.98,29.88,10,10,10,29,9,34,0.00,5,,300
2013-10-18,51,40,28,33,27,22,86,65,34,30.12,30.06,29.97,10,10,10,15,7,24,0.00,3,Rain,278
2013-10-19,61,48,34,37,31,28,80,59,29,29.98,29.85,29.77,10,10,10,15,8,21,0.00,2,,257
2013-10-20,58,44,32,40,35,29,90,61,41,30.05,29.85,29.71,10,10,10,26,10,36,0.00,5,Rain,293
2013-10-21,54,41,29,39,33,27,91,75,39,30.07,30.00,29.90,10,10,10,16,5,21,0.01,6,Rain,272
2013-10-22,47,38,30,42,36,28,92,78,59,30.10,30.02,29.89,10,10,4,24,12,33,0.00,6,,320
2013-10-23,51,40,29,39,35,27,93,82,62,30.25,30.10,30.00,10,10,7,16,5,22,0.01,5,Rain,4
2013-10-24,48,38,27,32,24,15,89,64,27,30.40,30.33,30.26,10,10,10,10,6,,0.01,1,,290
2013-10-25,63,46,30,38,34,27,90,63,35,30.32,30.15,30.00,10,10,10,25,10,31,0.00,1,,207
2013-10-26,52,41,31,39,29,23,82,62,32,30.28,30.17,30.05,10,10,10,18,9,23,0.00,0,,320
2013-10-27,70,50,31,36,31,24,74,55,23,30.07,29.92,29.81,10,8,0,17,7,24,0.00,0,,287
2013-10-28,42,36,31,34,31,28,91,80,65,30.27,30.18,30.05,10,8,1,22,13,28,0.11,5,Rain-Thunderstorm,36
2013-10-29,37,36,34,35,34,32,92,91,89,30.20,30.07,30.00,10,5,1,14,9,20,0.54,8,Rain-Snow,9
2013-10-30,45,40,34,37,33,32,92,88,70,30.04,29.89,29.74,10,7,2,10,6,18,0.02,7,Rain,304
2013-10-31,54,42,31,38,33,29,95,72,41,29.74,29.62,29.53,10,9,1,24,7,34,0.00,2,,283